Leyendecker II PSRC

April 5, 2020, 11 a.m.

  • imperial
Air Temperature RH Dewpoint Wind Chill Heat Index Wind Speed Wind Direction Precipitation Solar Radiation Soil Temperature
Date Time Max Mean Mean Total Total
US/Mountain F % F F F MPH MPH MPH deg. deg. in. MJ/m^2 F
2020-04-04 11:00 68.04 26.9 32.7 68.04 68.04 4.74 6.89 3.65 106.7 78.6 0.0 0.252 55.56
2020-04-04 11:05 68.59 28.67 34.78 68.59 68.59 0.98 4.92 2.84 125.0 89.0 0.0 0.256 55.65
2020-04-04 11:10 69.08 26.05 32.8 69.08 69.08 2.95 6.35 3.31 50.9 104.3 0.0 0.26 55.72
2020-04-04 11:15 69.26 27.99 34.75 69.26 69.26 3.67 6.35 3.44 119.7 166.0 0.0 0.264 55.8
2020-04-04 11:20 69.21 27.21 33.99 69.21 69.21 5.46 8.48 5.3 307.8 27.1 0.0 0.267 55.87
2020-04-04 11:25 69.19 29.62 36.11 69.19 69.19 2.59 4.56 2.57 111.2 248.6 0.0 0.272 55.94
2020-04-04 11:30 70.66 23.3 31.37 70.66 70.66 1.88 6.89 3.24 225.7 146.6 0.0 0.276 56.01
2020-04-04 11:35 70.9 19.22 26.85 70.9 70.9 7.96 10.09 5.68 292.7 218.9 0.0 0.279 56.1
2020-04-04 11:40 71.15 19.7 27.65 71.15 71.15 9.22 9.22 4.92 168.3 201.1 0.0 0.283 56.19
2020-04-04 11:45 70.9 19.7 27.45 70.9 70.9 3.67 10.98 6.76 225.8 207.7 0.0 0.285 56.26
2020-04-04 11:50 71.15 20.82 29.0 71.15 71.15 6.71 9.04 4.79 138.9 213.8 0.0 0.287 56.34
2020-04-04 11:55 72.37 17.7 26.06 72.37 72.37 5.46 8.12 5.03 195.3 209.3 0.0 0.289 56.46
2020-04-04 12:00 71.46 18.99 27.02 71.46 71.46 3.85 8.86 6.44 193.3 201.2 0.0 0.293 56.53
2020-04-04 12:05 71.64 17.93 25.77 71.64 71.64 6.53 9.4 5.03 196.6 205.7 0.0 0.294 56.61
2020-04-04 12:10 72.45 17.59 25.97 72.45 72.45 7.25 9.91 5.86 239.5 236.1 0.0 0.294 56.71
2020-04-04 12:15 72.68 17.22 25.65 72.68 72.68 6.17 12.77 6.31 221.0 189.8 0.0 0.298 56.8
2020-04-04 12:20 71.76 14.54 20.88 71.76 71.76 1.34 11.34 5.12 293.4 210.5 0.0 0.301 56.91
2020-04-04 12:25 72.81 13.96 20.75 72.81 72.81 2.95 5.64 3.69 236.6 184.8 0.0 0.301 56.98
2020-04-04 12:30 73.47 14.84 22.73 73.47 73.47 3.85 12.59 6.4 257.6 256.3 0.0 0.304 57.09
2020-04-04 12:35 72.73 17.7 26.36 72.73 72.73 7.61 14.38 7.52 159.9 200.2 0.0 0.304 57.18
2020-04-04 12:40 72.68 15.73 23.48 72.68 72.68 7.07 12.77 6.87 283.1 210.4 0.0 0.307 57.29
2020-04-04 12:45 72.81 16.3 24.43 72.81 72.81 6.35 10.09 5.93 248.9 226.8 0.0 0.307 57.36
2020-04-04 12:50 73.06 14.74 22.24 73.06 73.06 3.85 8.86 6.02 271.6 252.0 0.0 0.304 57.49
2020-04-04 12:55 74.08 18.14 28.06 74.08 74.08 3.67 10.09 5.55 145.3 220.8 0.0 0.305 57.56
2020-04-04 13:00 73.98 15.56 24.26 73.98 73.98 5.28 12.95 7.47 128.8 179.5 0.0 0.313 57.67
2020-04-04 13:05 73.85 15.22 23.63 73.85 73.85 5.46 12.59 8.5 259.1 202.0 0.0 0.309 57.79
2020-04-04 13:10 74.7 13.11 20.76 74.7 74.7 12.06 12.06 6.31 255.6 215.6 0.0 0.311 57.87
2020-04-04 13:15 73.72 12.77 19.38 73.72 73.72 8.86 15.1 10.07 263.1 236.5 0.0 0.304 57.97
2020-04-04 13:20 73.42 13.25 20.01 73.42 73.42 5.82 13.67 9.91 225.5 240.5 0.0 0.312 58.08
2020-04-04 13:25 73.72 13.18 20.12 73.72 73.72 8.12 14.56 9.64 234.7 240.5 0.0 0.311 58.17
2020-04-04 13:30 73.98 12.91 19.84 73.98 73.98 4.92 11.52 8.17 222.3 234.9 0.0 0.31 58.24
2020-04-04 13:35 74.21 12.84 19.89 74.21 74.21 10.8 15.28 8.43 200.7 228.6 0.0 0.308 58.37
2020-04-04 13:40 74.77 11.18 17.1 74.77 74.77 5.64 12.77 7.83 182.5 241.0 0.0 0.309 58.46
2020-04-04 13:45 74.57 14.47 23.0 74.57 74.57 6.71 8.12 5.15 208.1 202.9 0.0 0.308 58.55
2020-04-04 13:50 74.7 13.79 21.96 74.7 74.7 5.28 12.95 8.01 240.7 226.9 0.0 0.306 58.66
2020-04-04 13:55 75.69 13.28 21.85 75.69 75.69 14.2 14.2 7.52 205.8 256.4 0.0 0.306 58.75
2020-04-04 14:00 74.08 12.6 19.35 74.08 74.08 7.61 15.28 9.19 198.4 201.6 0.0 0.303 58.86
2020-04-04 14:05 75.61 11.48 18.37 75.61 75.61 10.45 12.24 8.86 231.3 212.3 0.0 0.301 58.95
2020-04-04 14:10 75.13 12.5 19.98 75.13 75.13 6.17 12.95 8.84 199.9 232.2 0.0 0.3 59.02
2020-04-04 14:15 75.13 14.37 23.28 75.13 75.13 10.45 15.1 8.01 207.3 213.1 0.0 0.299 59.09
2020-04-04 14:20 75.25 13.11 21.2 75.25 75.25 7.61 12.95 8.68 260.1 225.7 0.0 0.297 59.2
2020-04-04 14:25 75.69 11.75 18.97 75.69 75.69 6.35 7.78 4.9 229.4 245.6 0.0 0.294 59.29
2020-04-04 14:30 74.88 12.06 18.95 74.88 74.88 7.43 10.45 7.27 156.7 172.9 0.0 0.291 59.36
2020-04-04 14:35 75.38 13.18 21.43 75.38 75.38 7.61 12.42 6.55 148.4 190.1 0.0 0.29 59.47
2020-04-04 14:40 75.07 10.94 16.83 75.07 75.07 10.63 13.49 7.85 215.7 191.8 0.0 0.288 59.54
2020-04-04 14:45 74.82 12.26 19.29 74.82 74.82 7.07 12.24 8.86 196.6 215.8 0.0 0.285 59.61
2020-04-04 14:50 75.43 11.72 18.71 75.43 75.43 9.4 10.98 6.38 175.1 184.5 0.0 0.283 59.72
2020-04-04 14:55 75.0 12.26 19.43 75.0 75.0 10.09 11.88 8.1 236.0 207.1 0.0 0.279 59.77
2020-04-04 15:00 75.56 12.47 20.27 75.56 75.56 10.8 12.42 8.39 206.1 196.6 0.0 0.277 59.88
2020-04-04 15:05 75.56 12.97 21.19 75.56 75.56 3.13 12.95 8.43 323.4 226.8 0.0 0.273 59.95
2020-04-04 15:10 76.28 11.14 18.19 76.28 76.28 5.28 13.85 7.52 263.5 236.6 0.0 0.27 60.03
2020-04-04 15:15 76.15 12.84 21.42 76.15 76.15 5.46 10.09 6.76 202.7 247.0 0.0 0.265 60.08
2020-04-04 15:20 75.97 12.94 21.46 75.97 75.97 3.85 9.91 6.26 187.3 195.5 0.0 0.26 60.17
2020-04-04 15:25 76.64 10.6 17.31 76.64 76.64 6.71 10.09 7.29 263.9 238.9 0.0 0.258 60.22
2020-04-04 15:30 76.1 11.31 18.4 76.1 76.1 6.17 11.7 7.92 249.8 239.7 0.0 0.252 60.3
2020-04-04 15:35 75.79 12.43 20.37 75.79 75.79 7.78 9.57 6.93 174.7 226.7 0.0 0.241 60.39
2020-04-04 15:40 75.67 11.62 18.7 75.67 75.67 5.46 9.4 6.06 227.4 193.7 0.0 0.234 60.44
2020-04-04 15:45 76.21 14.47 24.31 76.21 76.21 4.21 10.45 6.44 208.7 190.2 0.0 0.23 60.49
2020-04-04 15:50 76.53 10.53 17.07 76.53 76.53 8.48 14.38 9.64 236.0 239.0 0.0 0.235 60.55
2020-04-04 15:55 76.23 11.45 18.79 76.23 76.23 6.35 11.52 7.34 185.0 235.7 0.0 0.231 60.58
2020-04-04 16:00 76.59 11.72 19.61 76.59 76.59 4.92 11.52 6.82 292.3 256.2 0.0 0.227 60.66
2020-04-04 16:05 76.53 11.41 18.94 76.53 76.53 9.22 9.22 4.97 209.6 229.2 0.0 0.223 60.69
2020-04-04 16:10 76.46 11.31 18.68 76.46 76.46 12.95 14.2 8.68 195.6 229.5 0.0 0.217 60.75
2020-04-04 16:15 76.28 12.87 21.57 76.28 76.28 5.28 12.42 6.62 230.2 247.1 0.0 0.212 60.8
2020-04-04 16:20 76.23 12.77 21.35 76.23 76.23 6.53 8.86 6.2 227.2 203.3 0.0 0.206 60.82
2020-04-04 16:25 76.1 12.97 21.62 76.1 76.1 9.57 12.95 7.9 137.7 181.6 0.0 0.201 60.87
2020-04-04 16:30 76.17 11.79 19.43 76.17 76.17 5.64 10.09 6.76 246.4 196.0 0.0 0.194 60.89
2020-04-04 16:35 76.53 13.59 23.07 76.53 76.53 6.35 10.27 6.55 196.9 229.4 0.0 0.19 60.93
2020-04-04 16:40 77.02 11.92 20.34 77.02 77.02 6.89 12.24 5.77 217.7 207.0 0.0 0.184 60.96
2020-04-04 16:45 76.96 11.79 20.04 76.96 76.96 7.25 13.13 7.4 179.2 222.4 0.0 0.179 61.0
2020-04-04 16:50 76.41 12.23 20.47 76.41 76.41 6.89 15.64 6.8 189.8 189.4 0.0 0.174 61.03
2020-04-04 16:55 75.97 12.6 20.83 75.97 75.97 5.1 12.59 9.02 250.0 211.1 0.0 0.168 61.05
2020-04-04 17:00 76.15 12.8 21.35 76.15 76.15 5.64 11.7 7.09 164.3 211.0 0.0 0.162 61.07
2020-04-04 17:05 76.66 12.53 21.24 76.66 76.66 7.07 7.96 4.94 235.2 221.1 0.0 0.156 61.09
2020-04-04 17:10 76.66 12.5 21.18 76.66 76.66 6.89 11.16 8.12 209.8 221.4 0.0 0.15 61.11
2020-04-04 17:15 77.4 11.82 20.44 77.4 77.4 4.56 8.48 4.72 176.9 235.2 0.0 0.145 61.12
2020-04-04 17:20 76.48 10.7 17.4 76.48 76.48 8.12 11.88 7.63 233.4 201.7 0.0 0.139 61.14
2020-04-04 17:25 76.53 11.35 18.82 76.53 76.53 9.91 13.49 8.81 211.8 210.4 0.0 0.133 61.16
2020-04-04 17:30 76.3 11.31 18.55 76.3 76.3 5.1 14.2 8.97 238.5 218.3 0.0 0.127 61.18
2020-04-04 17:35 76.6 10.97 18.08 76.6 76.6 9.22 11.88 6.96 177.6 211.9 0.0 0.122 61.16
2020-04-04 17:40 76.35 10.33 16.49 76.35 76.35 8.3 11.16 7.9 223.9 212.9 0.0 0.116 61.2
2020-04-04 17:45 76.3 10.05 15.82 76.3 76.3 6.71 8.68 6.15 299.8 216.0 0.0 0.11 61.21
2020-04-04 17:50 76.53 9.0 13.47 76.53 76.53 9.04 12.77 8.39 240.2 217.1 0.0 0.104 61.21
2020-04-04 17:55 76.3 9.07 13.47 76.3 76.3 7.61 10.27 7.99 218.0 211.7 0.0 0.098 61.21
2020-04-04 18:00 76.05 9.14 13.45 76.05 76.05 7.78 10.45 7.36 218.6 205.9 0.0 0.092 61.21
2020-04-04 18:05 76.23 8.59 12.18 76.23 76.23 9.73 11.34 7.85 196.9 233.8 0.0 0.088 61.21
2020-04-04 18:10 76.3 9.07 13.47 76.3 76.3 6.17 10.63 7.65 198.8 228.7 0.0 0.082 61.21
2020-04-04 18:15 75.99 8.7 12.29 75.99 75.99 5.64 13.85 8.63 199.5 217.9 0.0 0.076 61.21
2020-04-04 18:20 76.17 8.63 12.25 76.17 76.17 9.4 9.4 5.08 254.3 237.6 0.0 0.07 61.18
2020-04-04 18:25 75.92 8.87 12.68 75.92 75.92 6.0 12.95 7.96 187.1 235.9 0.0 0.065 61.18
2020-04-04 18:30 75.79 9.1 13.16 75.79 75.79 7.43 9.4 5.59 205.7 222.0 0.0 0.059 61.18
2020-04-04 18:35 75.74 9.88 15.0 75.74 75.74 6.71 11.34 7.45 188.5 224.7 0.0 0.054 61.14
2020-04-04 18:40 75.38 9.07 12.77 75.38 75.38 8.86 11.52 7.23 246.4 225.8 0.0 0.048 61.12
2020-04-04 18:45 75.31 9.34 13.39 75.31 75.31 5.1 9.91 5.79 239.8 236.2 0.0 0.043 61.12
2020-04-04 18:50 75.18 10.63 16.25 75.18 75.18 4.38 8.12 5.48 198.3 224.6 0.0 0.038 61.09
2020-04-04 18:55 74.82 10.22 15.07 74.82 74.82 3.67 7.61 5.19 233.0 230.5 0.0 0.033 61.07
2020-04-04 19:00 74.7 10.97 16.61 74.7 74.7 4.56 8.48 5.75 200.6 222.1 0.0 0.028 61.05
2020-04-04 19:05 74.03 11.14 16.45 74.03 74.03 3.67 8.48 5.48 210.5 217.8 0.0 0.022 61.03
2020-04-04 19:10 73.98 10.77 15.63 73.98 73.98 6.71 7.96 5.41 278.2 226.9 0.0 0.018 61.0
2020-04-04 19:15 73.8 11.18 16.35 73.8 73.8 4.38 7.61 5.73 224.8 228.7 0.0 0.012 60.98
2020-04-04 19:20 73.42 11.11 15.91 73.42 73.42 3.13 5.82 3.49 233.6 238.1 0.0 0.003 60.94
2020-04-04 19:25 72.68 11.65 16.43 72.68 72.68 3.85 3.85 2.39 227.1 234.1 0.0 0.001 60.93
2020-04-04 19:30 72.5 11.92 16.82 72.5 72.5 2.42 4.74 2.84 288.8 254.5 0.0 0.0 60.89
2020-04-04 19:35 71.89 12.16 16.8 71.89 71.89 1.34 2.95 1.97 240.1 239.0 0.0 0.0 60.85
2020-04-04 19:40 71.35 12.64 17.28 71.35 71.35 1.16 1.88 1.1 282.6 258.9 0.0 0.0 60.84
2020-04-04 19:45 70.43 13.08 17.35 70.43 70.43 1.52 2.95 1.7 245.9 280.8 0.0 0.0 60.8
2020-04-04 19:50 69.82 13.66 17.87 69.82 69.82 2.06 2.06 1.1 272.4 229.1 0.0 0.0 60.76
2020-04-04 19:55 69.76 13.32 17.24 69.76 69.76 1.34 2.95 1.79 272.7 250.8 0.0 0.0 60.73
2020-04-04 20:00 69.22 14.27 18.41 69.22 69.22 0.81 1.7 1.12 308.9 281.7 0.0 0.0 60.69
2020-04-04 20:05 67.8 15.83 19.7 67.8 67.8 0.0 2.06 0.85 312.8 331.0 0.0 0.0 60.64
2020-04-04 20:10 66.42 17.6 21.07 66.42 66.42 0.0 0.0 0.0 283.4 0.0 0.0 0.0 60.6
2020-04-04 20:15 65.57 19.37 22.64 65.57 65.57 0.0 0.0 0.0 315.3 0.0 0.0 0.0 60.57
2020-04-04 20:20 64.45 19.84 22.29 64.45 64.45 0.0 0.0 0.0 329.9 0.0 0.0 0.0 60.53
2020-04-04 20:25 63.55 19.5 21.13 63.55 63.55 0.0 0.0 0.0 330.0 0.0 0.0 0.0 60.46
2020-04-04 20:30 62.74 20.83 22.02 62.74 62.74 2.42 3.13 0.56 244.7 248.2 0.0 0.0 60.42
2020-04-04 20:35 62.74 20.59 21.75 62.74 62.74 2.42 4.21 3.13 324.7 291.0 0.0 0.0 60.39
2020-04-04 20:40 63.55 19.54 21.18 63.55 63.55 2.42 3.49 2.66 243.2 266.7 0.0 0.0 60.33
2020-04-04 20:45 63.91 21.82 24.1 63.91 63.91 1.16 2.95 1.9 266.7 236.4 0.0 0.0 60.3
2020-04-04 20:50 63.37 24.47 26.41 63.37 63.37 1.52 2.42 1.66 309.8 273.0 0.0 0.0 60.24
2020-04-04 20:55 62.46 22.77 23.9 62.46 62.46 0.0 1.7 0.63 296.1 294.0 0.0 0.0 60.19
2020-04-04 21:00 61.74 24.09 24.64 61.74 61.74 0.81 1.16 0.25 242.8 285.4 0.0 0.0 60.15
2020-04-04 21:05 61.36 22.6 22.8 61.36 61.36 0.0 1.52 0.87 279.9 258.6 0.0 0.0 60.1
2020-04-04 21:10 61.3 21.99 22.1 61.3 61.3 0.0 1.88 0.83 239.0 260.6 0.0 0.0 60.03
2020-04-04 21:15 61.0 21.75 21.58 61.0 61.0 0.0 0.81 0.02 329.7 278.0 0.0 0.0 59.99
2020-04-04 21:20 61.0 22.63 22.52 61.0 61.0 0.0 0.0 0.0 28.3 0.0 0.0 0.0 59.95
2020-04-04 21:25 60.57 24.16 23.72 60.57 60.57 0.0 0.0 0.0 39.6 0.0 0.0 0.0 59.88
2020-04-04 21:30 59.83 24.27 23.2 59.83 59.83 0.0 0.0 0.0 35.7 0.0 0.0 0.0 59.86
2020-04-04 21:35 58.55 31.61 28.47 58.55 58.55 0.98 1.88 0.76 39.4 31.1 0.0 0.0 59.83
2020-04-04 21:40 58.06 27.77 24.91 58.06 58.06 1.7 1.7 0.92 310.8 324.0 0.0 0.0 59.77
2020-04-04 21:45 59.23 24.06 22.49 59.23 59.23 4.03 4.74 3.0 310.1 306.8 0.0 0.0 59.72
2020-04-04 21:50 59.61 24.34 23.08 59.61 59.61 4.21 4.56 4.03 305.2 318.7 0.0 0.0 59.68
2020-04-04 21:55 59.49 23.73 22.37 59.49 59.49 3.49 4.56 3.71 312.9 321.8 0.0 0.0 59.61
2020-04-04 22:00 59.18 24.98 23.34 59.18 59.18 0.98 3.49 2.28 298.0 298.4 0.0 0.0 59.58
2020-04-04 22:05 58.87 24.91 23.01 58.87 58.87 2.06 2.95 2.24 261.1 291.7 0.0 0.0 59.52
2020-04-04 22:10 58.5 25.05 22.82 58.5 58.5 0.0 2.95 1.7 277.2 281.2 0.0 0.0 59.49
2020-04-04 22:15 58.08 25.19 22.6 58.08 58.08 0.0 0.98 0.11 42.0 251.3 0.0 0.0 59.45
2020-04-04 22:20 57.52 29.4 25.82 57.52 57.52 0.81 1.16 0.29 192.8 222.8 0.0 0.0 59.38
2020-04-04 22:25 57.04 27.02 23.38 57.04 57.04 4.21 4.38 1.97 204.2 169.3 0.0 0.0 59.32
2020-04-04 22:30 60.15 23.08 22.28 60.15 60.15 3.85 7.07 3.44 227.1 229.5 0.0 0.0 59.29
2020-04-04 22:35 63.52 19.92 21.61 63.52 63.52 6.35 7.96 5.3 237.9 247.8 0.0 0.0 59.25
2020-04-04 22:40 63.95 19.71 21.71 63.95 63.95 3.13 7.07 4.36 274.7 253.2 0.0 0.0 59.22
2020-04-04 22:45 63.77 19.92 21.81 63.77 63.77 3.67 5.28 3.58 211.4 233.8 0.0 0.0 59.14
2020-04-04 22:50 63.39 20.67 22.38 63.39 63.39 1.34 5.28 2.89 226.4 224.9 0.0 0.0 59.11
2020-04-04 22:55 62.85 20.46 21.69 62.85 62.85 3.67 5.46 3.53 226.1 216.9 0.0 0.0 59.05
2020-04-04 23:00 62.42 21.28 22.26 62.42 62.42 2.95 3.85 2.93 249.2 240.7 0.0 0.0 59.02
2020-04-04 23:05 62.11 21.75 22.52 62.11 62.11 3.31 6.0 3.51 211.0 236.1 0.0 0.0 58.98
2020-04-04 23:10 62.4 21.55 22.54 62.4 62.4 5.82 7.96 4.83 263.8 243.8 0.0 0.0 58.95
2020-04-04 23:15 63.01 20.8 22.21 63.01 63.01 7.07 11.88 6.69 271.5 241.3 0.0 0.0 58.89
2020-04-04 23:20 63.01 20.87 22.29 63.01 63.01 7.07 13.85 7.16 239.6 245.9 0.0 0.0 58.86
2020-04-04 23:25 63.19 20.87 22.44 63.19 63.19 4.92 12.24 7.85 287.9 251.6 0.0 0.0 58.82
2020-04-04 23:30 63.27 20.66 22.26 63.27 63.27 6.53 12.24 7.99 264.6 243.8 0.0 0.0 58.78
2020-04-04 23:35 63.07 20.66 22.1 63.07 63.07 4.56 9.22 6.15 221.4 251.8 0.0 0.0 58.73
2020-04-04 23:40 62.96 20.93 22.31 62.96 62.96 6.53 9.04 6.08 217.4 236.9 0.0 0.0 58.69
2020-04-04 23:45 62.89 20.87 22.19 62.89 62.89 5.28 10.63 6.06 254.6 245.7 0.0 0.0 58.64
2020-04-04 23:50 62.89 20.93 22.25 62.89 62.89 10.63 10.63 6.26 240.4 254.9 0.0 0.0 58.6
2020-04-04 23:55 62.76 21.41 22.69 62.76 62.76 7.07 9.73 5.82 284.6 257.8 0.0 0.0 58.59
2020-04-05 00:00 62.4 21.44 22.42 62.4 62.4 6.0 10.98 6.82 265.2 268.0 0.0 0.0 58.53
2020-04-05 00:05 62.02 22.02 22.74 62.02 62.02 4.38 7.25 5.59 229.7 259.6 0.0 0.0 58.5
2020-04-05 00:10 61.72 22.33 22.81 61.72 61.72 2.42 9.4 4.65 191.4 255.9 0.0 0.0 58.46
2020-04-05 00:15 61.54 22.29 22.62 61.54 61.54 6.17 7.07 4.63 276.6 242.4 0.0 0.0 58.42
2020-04-05 00:20 61.9 21.92 22.52 61.9 61.9 6.17 10.8 5.82 223.4 245.0 0.0 0.0 58.37
2020-04-05 00:25 62.28 21.41 22.28 62.28 62.28 9.91 10.27 7.43 275.2 241.2 0.0 0.0 58.35
2020-04-05 00:30 62.28 21.41 22.28 62.28 62.28 6.71 10.98 6.44 246.1 252.2 0.0 0.0 58.32
2020-04-05 00:35 62.2 21.75 22.59 62.2 62.2 2.77 8.86 4.83 257.0 244.6 0.0 0.0 58.3
2020-04-05 00:40 61.9 21.95 22.56 61.9 61.9 5.1 10.27 4.9 237.7 253.2 0.0 0.0 58.26
2020-04-05 00:45 61.72 22.63 23.13 61.72 61.72 2.42 4.92 3.15 219.8 257.1 0.0 0.0 58.24
2020-04-05 00:50 61.41 22.36 22.59 61.41 61.41 2.42 6.53 4.32 15.6 247.4 0.0 0.0 58.21
2020-04-05 00:55 61.41 23.38 23.65 61.41 61.41 2.59 5.46 3.24 325.9 260.1 0.0 0.0 58.17
2020-04-05 01:00 60.57 23.45 23.01 60.57 60.57 3.31 9.04 3.91 338.1 320.1 0.0 0.0 58.15
2020-04-05 01:05 58.86 28.14 25.92 58.86 58.86 2.77 4.38 3.44 348.1 357.8 0.0 0.0 58.12
2020-04-05 01:10 56.89 31.37 26.84 56.89 56.89 2.59 4.56 3.6 44.9 28.7 0.0 0.0 58.1
2020-04-05 01:15 56.84 31.44 26.85 56.84 56.84 3.31 4.92 3.83 92.0 96.4 0.0 0.0 58.05
2020-04-05 01:20 56.46 32.39 27.24 56.46 56.46 5.1 5.64 4.12 101.0 94.3 0.0 0.0 58.01
2020-04-05 01:25 56.46 35.85 29.72 56.46 56.46 4.74 6.35 4.27 103.6 100.7 0.0 0.0 57.97
2020-04-05 01:30 56.66 28.65 24.45 56.66 56.66 4.38 6.71 5.03 121.9 123.0 0.0 0.0 57.96
2020-04-05 01:35 57.63 30.35 26.68 57.63 57.63 5.1 6.35 4.59 164.4 117.4 0.0 0.0 57.96
2020-04-05 01:40 58.5 30.38 27.46 58.5 58.5 4.03 7.25 4.9 132.1 123.4 0.0 0.0 57.92
2020-04-05 01:45 59.04 27.9 25.86 59.04 59.04 2.42 6.0 4.25 175.7 126.9 0.0 0.0 57.88
2020-04-05 01:50 58.62 29.13 26.55 58.62 58.62 2.42 6.53 4.52 148.0 134.7 0.0 0.0 57.85
2020-04-05 01:55 59.41 25.53 24.06 59.41 59.41 0.98 10.63 4.72 183.0 182.0 0.0 0.0 57.81
2020-04-05 02:00 59.41 28.07 26.34 59.41 59.41 1.34 2.95 0.92 200.0 121.6 0.0 0.0 57.78
2020-04-05 02:05 58.14 27.53 24.77 58.14 58.14 4.38 4.38 1.95 213.3 210.4 0.0 0.0 57.76
2020-04-05 02:10 59.23 26.55 24.84 59.23 59.23 4.21 4.56 2.8 223.5 265.3 0.0 0.0 57.74
2020-04-05 02:15 59.23 27.6 25.77 59.23 59.23 2.42 3.85 2.3 329.4 128.3 0.0 0.0 57.7
2020-04-05 02:20 59.18 26.58 24.82 59.18 59.18 1.52 2.24 1.5 163.1 198.4 0.0 0.0 57.67
2020-04-05 02:25 59.36 26.65 25.04 59.36 59.36 1.7 5.28 2.68 241.3 182.4 0.0 0.0 57.63
2020-04-05 02:30 58.08 31.68 28.12 58.08 58.08 4.38 4.38 2.59 79.7 84.7 0.0 0.0 57.61
2020-04-05 02:35 58.5 30.83 27.82 58.5 58.5 2.06 5.82 2.95 48.4 132.4 0.0 0.0 57.6
2020-04-05 02:40 57.27 31.65 27.39 57.27 57.27 0.0 4.03 1.95 210.4 60.2 0.0 0.0 57.56
2020-04-05 02:45 56.37 31.95 26.83 56.37 56.37 2.42 3.85 2.42 48.4 86.4 0.0 0.0 57.52
2020-04-05 02:50 56.17 32.7 27.22 56.17 56.17 1.88 3.31 1.83 43.2 62.6 0.0 0.0 57.49
2020-04-05 02:55 55.99 32.36 26.8 55.99 55.99 2.77 2.77 1.81 83.1 79.8 0.0 0.0 57.45
2020-04-05 03:00 55.08 37.93 29.87 55.08 55.08 0.81 3.31 2.64 155.8 93.5 0.0 0.0 57.42
2020-04-05 03:05 53.73 38.92 29.29 53.73 53.73 1.7 2.42 1.68 201.7 182.0 0.0 0.0 57.38
2020-04-05 03:10 53.73 35.11 26.78 53.73 53.73 4.03 4.03 1.99 158.4 176.2 0.0 0.0 57.34
2020-04-05 03:15 55.02 32.53 26.08 55.02 55.02 2.59 5.28 3.4 91.6 111.4 0.0 0.0 57.31
2020-04-05 03:20 54.64 35.83 28.09 54.64 54.64 2.06 2.77 1.77 230.6 173.6 0.0 0.0 57.29
2020-04-05 03:25 53.01 40.92 29.88 53.01 53.01 3.49 3.49 2.66 191.4 219.2 0.0 0.0 57.25
2020-04-05 03:30 53.06 38.78 28.61 53.06 53.06 2.06 3.85 2.77 212.4 202.0 0.0 0.0 57.24
2020-04-05 03:35 53.06 40.82 29.86 53.06 53.06 0.98 2.59 1.52 289.3 225.3 0.0 0.0 57.2
2020-04-05 03:40 50.97 46.57 31.22 50.97 50.97 0.0 2.24 1.34 57.7 52.4 0.0 0.0 57.16
2020-04-05 03:45 50.31 46.57 30.61 50.31 50.31 0.0 0.81 0.16 286.4 58.9 0.0 0.0 57.13
2020-04-05 03:50 49.21 47.28 29.97 49.21 49.21 0.0 0.98 0.18 236.5 256.4 0.0 0.0 57.09
2020-04-05 03:55 48.72 48.33 30.07 48.72 48.72 0.0 0.0 0.0 298.9 0.0 0.0 0.0 57.06
2020-04-05 04:00 48.47 48.81 30.08 48.47 48.47 0.0 0.0 0.0 276.8 0.0 0.0 0.0 57.02
2020-04-05 04:05 48.42 46.74 28.97 46.62 48.42 4.56 4.56 0.92 318.1 324.5 0.0 0.0 57.02
2020-04-05 04:10 46.27 49.86 28.58 46.27 46.27 1.7 4.56 2.84 0.1 333.4 0.0 0.0 56.97
2020-04-05 04:15 46.02 54.42 30.49 46.02 46.02 2.24 2.77 1.97 15.7 38.3 0.0 0.0 56.95
2020-04-05 04:20 46.02 53.57 30.1 46.02 46.02 0.81 1.88 0.76 0.1 31.8 0.0 0.0 56.91
2020-04-05 04:25 45.72 54.79 30.37 45.72 45.72 0.0 0.0 0.0 1.4 0.0 0.0 0.0 56.89
2020-04-05 04:30 45.36 54.66 29.98 45.36 45.36 0.0 0.0 0.0 267.4 0.0 0.0 0.0 56.86
2020-04-05 04:35 45.79 53.82 30.0 45.79 45.79 1.16 1.34 0.29 236.8 229.8 0.0 0.0 56.82
2020-04-05 04:40 46.4 51.47 29.47 46.4 46.4 0.0 0.98 0.09 228.5 245.1 0.0 0.0 56.79
2020-04-05 04:45 46.58 53.92 30.78 46.58 46.58 0.0 0.0 0.0 241.7 0.0 0.0 0.0 56.77
2020-04-05 04:50 46.17 56.09 31.37 46.17 46.17 1.52 2.59 1.45 255.0 248.0 0.0 0.0 56.73
2020-04-05 04:55 44.94 60.38 32.05 44.94 44.94 2.77 6.53 2.68 318.6 307.1 0.0 0.0 56.7
2020-04-05 05:00 43.95 62.45 31.95 43.95 43.95 0.0 2.95 1.7 287.9 313.8 0.0 0.0 56.66
2020-04-05 05:05 44.2 61.94 31.98 41.84 44.2 4.38 7.61 3.67 303.8 311.0 0.0 0.0 56.62
2020-04-05 05:10 44.64 59.12 31.24 44.64 44.64 2.95 7.07 3.76 306.5 304.7 0.0 0.0 56.57
2020-04-05 05:15 44.69 58.0 30.81 44.69 44.69 0.0 3.31 1.45 18.4 299.1 0.0 0.0 56.53
2020-04-05 05:20 44.46 57.05 30.19 44.46 44.46 2.06 2.06 0.34 94.1 96.4 0.0 0.0 56.5
2020-04-05 05:25 44.46 57.97 30.58 42.42 44.46 4.03 4.03 1.36 277.3 100.5 0.0 0.0 56.46
2020-04-05 05:30 44.71 54.2 29.17 44.71 44.71 1.88 4.38 1.66 271.4 274.4 0.0 0.0 56.46
2020-04-05 05:35 44.58 55.79 29.76 44.58 44.58 0.98 3.49 2.26 136.9 132.4 0.0 0.0 56.43
2020-04-05 05:40 44.46 58.07 30.62 44.46 44.46 2.24 2.42 1.45 196.3 162.7 0.0 0.0 56.39
2020-04-05 05:45 44.94 56.51 30.41 44.94 44.94 0.0 2.24 1.12 302.2 186.8 0.0 0.0 56.35
2020-04-05 05:50 44.33 58.92 30.86 44.33 44.33 1.88 2.24 1.23 237.8 283.7 0.0 0.0 56.32
2020-04-05 05:55 43.72 60.66 31.01 43.72 43.72 2.59 2.59 1.07 142.6 206.3 0.0 0.0 56.28
2020-04-05 06:00 43.54 61.95 31.36 43.54 43.54 1.34 2.95 0.96 156.1 142.8 0.0 0.0 56.25
2020-04-05 06:05 43.54 66.4 33.08 43.54 43.54 0.0 2.42 1.57 167.5 145.1 0.0 0.0 56.21
2020-04-05 06:10 43.3 64.6 32.17 43.3 43.3 1.88 1.88 0.2 298.5 299.2 0.0 0.0 56.19
2020-04-05 06:15 43.11 65.35 32.27 43.11 43.11 1.16 2.06 1.63 312.2 282.6 0.0 0.0 56.17
2020-04-05 06:20 42.75 65.83 32.11 42.75 42.75 0.0 0.81 0.04 177.9 298.1 0.0 0.0 56.14
2020-04-05 06:25 42.26 65.83 31.65 42.26 42.26 0.0 1.7 0.78 204.5 328.0 0.0 0.0 56.1
2020-04-05 06:30 42.31 66.3 31.88 42.31 42.31 1.34 1.34 0.45 240.2 225.5 0.0 0.0 56.07
2020-04-05 06:35 42.75 64.06 31.44 42.75 42.75 0.0 1.7 0.87 283.9 238.5 0.0 0.0 56.03
2020-04-05 06:40 42.75 62.87 30.97 42.75 42.75 1.16 1.34 0.69 282.5 295.3 0.0 0.0 56.03
2020-04-05 06:45 42.62 63.21 30.99 42.62 42.62 0.0 1.16 0.13 134.9 314.1 0.0 0.0 55.99
2020-04-05 06:50 42.69 65.56 31.96 42.69 42.69 2.59 2.59 0.36 210.3 210.2 0.0 0.001 55.96
2020-04-05 06:55 42.8 69.74 33.6 42.8 42.8 0.0 2.59 0.58 243.2 229.7 0.0 0.002 55.92
2020-04-05 07:00 43.0 63.96 31.64 43.0 43.0 0.0 0.0 0.0 237.4 0.0 0.0 0.005 55.9
2020-04-05 07:05 43.18 67.83 33.27 41.61 43.18 3.31 3.31 0.92 242.5 239.2 0.0 0.013 55.89
2020-04-05 07:10 43.48 64.91 32.46 43.48 43.48 2.24 2.95 2.04 323.4 167.7 0.0 0.012 55.85
2020-04-05 07:15 43.0 67.94 33.14 43.0 43.0 2.24 5.64 2.33 351.4 9.1 0.0 0.019 55.8
2020-04-05 07:20 43.61 63.45 32.02 43.61 43.61 1.34 2.59 1.9 343.9 347.6 0.0 0.032 55.76
2020-04-05 07:25 44.96 59.3 31.62 44.96 44.96 1.88 2.59 0.94 119.3 110.1 0.0 0.039 55.76
2020-04-05 07:30 46.06 62.29 33.88 46.06 46.06 0.0 2.24 1.28 222.6 30.4 0.0 0.042 55.72
2020-04-05 07:35 47.16 60.8 34.31 47.16 47.16 1.34 1.7 0.54 307.8 344.7 0.0 0.044 55.71
2020-04-05 07:40 48.38 58.35 34.43 48.38 48.38 0.0 1.34 0.25 328.8 318.8 0.0 0.051 55.69
2020-04-05 07:45 49.84 53.34 33.54 49.84 49.84 0.0 0.0 0.0 161.6 0.0 0.0 0.054 55.67
2020-04-05 07:50 51.3 51.85 34.19 51.3 51.3 0.0 0.0 0.0 136.2 0.0 0.0 0.055 55.62
2020-04-05 07:55 52.83 51.57 35.47 52.83 52.83 0.0 0.0 0.0 9.9 0.0 0.0 0.063 55.62
2020-04-05 08:00 53.92 44.87 32.99 53.92 53.92 0.0 0.0 0.0 191.2 0.0 0.0 0.063 55.6
2020-04-05 08:05 53.92 46.94 34.12 53.92 53.92 0.0 0.0 0.0 140.5 0.0 0.0 0.056 55.6
2020-04-05 08:10 54.66 42.29 32.18 54.66 54.66 0.0 0.0 0.0 160.6 0.0 0.0 0.075 55.54
2020-04-05 08:15 55.02 40.52 31.45 55.02 55.02 1.34 2.42 1.63 132.5 158.0 0.0 0.083 55.54
2020-04-05 08:20 56.25 44.05 34.64 56.25 56.25 0.98 2.24 1.52 113.1 129.7 0.0 0.091 55.51
2020-04-05 08:25 57.83 39.6 33.4 57.83 57.83 0.98 1.16 0.58 131.1 129.9 0.0 0.087 55.51
2020-04-05 08:30 58.62 40.35 34.58 58.62 58.62 2.42 2.59 1.25 35.3 41.6 0.0 0.099 55.51
2020-04-05 08:35 58.62 40.24 34.51 58.62 58.62 1.34 2.59 1.9 70.9 57.9 0.0 0.105 55.49
2020-04-05 08:40 58.62 45.3 37.51 58.62 58.62 2.42 3.49 2.19 73.1 84.5 0.0 0.111 55.49
2020-04-05 08:45 59.52 36.6 32.95 59.52 59.52 1.34 2.77 1.81 118.1 73.1 0.0 0.117 55.49
2020-04-05 08:50 60.31 34.53 32.2 60.31 60.31 0.0 3.13 1.79 322.6 8.2 0.0 0.122 55.49
2020-04-05 08:55 60.93 34.52 32.73 60.93 60.93 2.77 3.67 1.97 352.0 5.4 0.0 0.128 55.49
2020-04-05 09:00 60.12 35.51 32.72 60.12 60.12 2.59 5.64 4.05 18.9 31.5 0.0 0.135 55.47
2020-04-05 09:05 60.62 31.16 29.93 60.62 60.62 2.95 6.71 3.53 320.3 338.6 0.0 0.137 55.49
2020-04-05 09:10 61.41 30.04 29.72 61.41 61.41 3.31 7.43 4.12 236.8 291.5 0.0 0.146 55.51
2020-04-05 09:15 61.47 29.76 29.54 61.47 61.47 4.38 7.25 4.09 308.9 293.3 0.0 0.153 55.53
2020-04-05 09:20 62.08 29.73 30.04 62.08 62.08 4.92 4.92 3.04 306.2 305.0 0.0 0.15 55.54
2020-04-05 09:25 61.83 29.52 29.65 61.83 61.83 5.46 9.04 5.93 339.6 324.6 0.0 0.158 55.56
2020-04-05 09:30 62.31 28.84 29.5 62.31 62.31 5.28 6.71 4.38 294.3 312.5 0.0 0.167 55.56
2020-04-05 09:35 62.44 30.98 31.37 62.44 62.44 4.92 9.04 6.44 335.2 305.0 0.0 0.173 55.58
2020-04-05 09:40 62.62 29.42 30.25 62.62 62.62 5.82 8.48 6.42 252.5 307.4 0.0 0.177 55.62
2020-04-05 09:45 62.6 28.91 29.81 62.6 62.6 5.64 9.4 6.89 312.1 307.7 0.0 0.186 55.65
2020-04-05 09:50 63.09 29.04 30.34 63.09 63.09 4.21 7.43 5.08 294.2 295.9 0.0 0.17 55.67
2020-04-05 09:55 63.28 27.75 29.39 63.28 63.28 4.38 7.78 5.64 245.3 261.6 0.0 0.19 55.72
2020-04-05 10:00 63.34 29.55 30.99 63.34 63.34 8.68 8.68 4.74 309.1 298.7 0.0 0.188 55.74
2020-04-05 10:05 63.77 27.14 29.27 63.77 63.77 4.21 11.34 6.62 292.2 313.5 0.0 0.206 55.78
2020-04-05 10:10 63.95 27.72 29.94 63.95 63.95 4.21 7.96 5.3 325.3 332.6 0.0 0.207 55.83
2020-04-05 10:15 64.74 27.75 30.65 64.74 64.74 5.46 7.07 4.47 339.2 322.8 0.0 0.212 55.87
2020-04-05 10:20 64.8 29.38 32.11 64.8 64.8 4.56 7.96 5.86 339.3 339.6 0.0 0.223 55.9
2020-04-05 10:25 66.38 26.94 31.32 66.38 66.38 7.07 7.43 4.5 316.1 286.7 0.0 0.233 55.94
2020-04-05 10:30 65.66 26.49 30.29 65.66 65.66 3.13 10.27 4.52 317.3 318.2 0.0 0.233 56.01
2020-04-05 10:35 66.15 23.81 28.09 66.15 66.15 2.95 8.12 3.51 337.6 288.1 0.0 0.234 56.07
2020-04-05 10:40 67.24 22.86 28.02 67.24 67.24 1.52 5.46 2.44 155.3 19.2 0.0 0.222 56.1
2020-04-05 10:45 67.68 24.93 30.51 67.68 67.68 4.38 5.82 3.31 115.7 172.5 0.0 0.209 56.17
2020-04-05 10:50 67.12 23.3 28.38 67.12 67.12 7.61 8.3 5.03 173.3 159.3 0.0 0.223 56.21
2020-04-05 10:55 67.12 22.86 27.92 67.12 67.12 3.31 7.43 4.94 221.0 182.6 0.0 0.232 56.28
2020-04-05 11:00 66.88 22.52 27.36 66.88 66.88 5.82 8.12 5.35 253.3 276.4 0.0 0.212 56.35

Data is courtesy of the NM Climate Center. DO NOT USE IN LEGAL PROCEEDINGS.